Time;durP1;ratioP1;P1;durP2;ratioP2;P2;SDS_P1;SDS_P2;PMS_P1;PMS_P2;Temp;Humidity;BMP_temperature;BMP_pressure;BME280_temperature;BME280_humidity;BME280_pressure;Samples;Min_cycle;Max_cycle;Signal;HPM_P1;HPM_P2
2023/12/30 00:00:52;;;;;;;;;;;18.50;63.00;;;;;;5012116;28;43341;-90
2023/12/30 00:03:19;;;;;;;;;;;18.70;63.50;;;;;;5014398;28;43168;-91
2023/12/30 00:05:45;;;;;;;;;;;18.50;63.60;;;;;;5015275;28;42835;-94
2023/12/30 00:08:11;;;;;;;;;;;18.50;63.60;;;;;;5010990;28;43268;-94
2023/12/30 00:10:36;;;;;;;;;;;18.50;63.70;;;;;;5010087;28;42889;-95
2023/12/30 00:13:02;;;;;;;;;;;18.50;63.70;;;;;;5014951;28;43042;-93
2023/12/30 00:15:27;;;;;;;;;;;18.50;63.50;;;;;;5020674;28;42940;-93
2023/12/30 00:17:53;;;;;;;;;;;18.50;63.90;;;;;;5013976;28;42955;-89
2023/12/30 00:20:19;;;;;;;;;;;18.60;64.20;;;;;;5010568;28;42972;-87
2023/12/30 00:22:44;;;;;;;;;;;18.30;64.10;;;;;;5014269;28;42973;-85
2023/12/30 00:25:10;;;;;;;;;;;18.50;64.30;;;;;;5014555;28;44710;-89
2023/12/30 00:27:36;;;;;;;;;;;;;;;;;;5014804;28;43058;-93
2023/12/30 00:30:02;;;;;;;;;;;18.50;64.20;;;;;;5027136;28;44493;-88
2023/12/30 00:32:28;;;;;;;;;;;18.60;63.70;;;;;;5026015;28;43366;-89
2023/12/30 00:34:54;;;;;;;;;;;18.50;64.20;;;;;;5017826;28;42947;-93
2023/12/30 00:37:20;;;;;;;;;;;18.50;64.40;;;;;;5016345;28;43028;-92
2023/12/30 00:39:45;;;;;;;;;;;18.50;64.70;;;;;;5013912;28;43294;-88
2023/12/30 00:42:11;;;;;;;;;;;18.60;64.60;;;;;;5015528;28;43054;-91
2023/12/30 00:44:37;;;;;;;;;;;18.60;64.70;;;;;;5013755;28;43855;-88
2023/12/30 00:47:02;;;;;;;;;;;18.50;64.70;;;;;;5015556;28;43187;-90
2023/12/30 00:49:28;;;;;;;;;;;18.60;64.60;;;;;;5015556;28;43944;-92
2023/12/30 00:51:53;;;;;;;;;;;18.60;64.70;;;;;;5015870;28;42876;-91
2023/12/30 00:54:19;;;;;;;;;;;18.60;64.60;;;;;;5012989;28;42987;-90
2023/12/30 00:56:44;;;;;;;;;;;18.40;63.40;;;;;;5016835;28;43011;-90
2023/12/30 00:59:10;;;;;;;;;;;18.60;64.70;;;;;;5012054;28;44709;-88
2023/12/30 01:01:35;;;;;;;;;;;18.60;64.60;;;;;;5016028;28;42934;-93
2023/12/30 01:04:01;;;;;;;;;;;18.60;64.70;;;;;;5017050;28;43497;-92
2023/12/30 01:06:27;;;;;;;;;;;18.70;64.90;;;;;;5016506;28;42900;-89
2023/12/30 01:08:52;;;;;;;;;;;18.70;64.80;;;;;;5016070;28;42998;-93
2023/12/30 01:11:18;;;;;;;;;;;18.70;64.80;;;;;;5016870;28;42954;-85
2023/12/30 01:13:43;;;;;;;;;;;18.50;64.80;;;;;;5015996;28;43016;-92
2023/12/30 01:16:09;;;;;;;;;;;18.70;64.80;;;;;;5015110;28;43030;-93
2023/12/30 01:18:34;;;;;;;;;;;18.80;64.80;;;;;;5016857;28;43513;-87
2023/12/30 01:21:00;;;;;;;;;;;18.70;64.80;;;;;;5015697;28;43051;-87
2023/12/30 01:23:25;;;;;;;;;;;18.60;65.00;;;;;;5015604;28;43014;-86
2023/12/30 01:25:51;;;;;;;;;;;18.50;64.80;;;;;;5024493;28;42994;-91
2023/12/30 01:28:17;;;;;;;;;;;;;;;;;;5019723;28;43060;-85
2023/12/30 01:30:42;;;;;;;;;;;18.50;64.80;;;;;;5016788;28;43159;-88
2023/12/30 01:33:08;;;;;;;;;;;18.50;64.60;;;;;;5018216;28;43522;-86
2023/12/30 01:35:33;;;;;;;;;;;18.60;64.80;;;;;;5016600;28;42912;-86
2023/12/30 01:37:59;;;;;;;;;;;18.60;64.80;;;;;;5014814;28;43081;-86
2023/12/30 01:40:25;;;;;;;;;;;18.60;64.80;;;;;;5021530;28;43084;-87
2023/12/30 01:42:50;;;;;;;;;;;18.40;64.80;;;;;;5013798;28;43547;-86
2023/12/30 01:45:16;;;;;;;;;;;18.60;64.70;;;;;;5012979;28;43191;-87
2023/12/30 01:47:41;;;;;;;;;;;18.70;64.90;;;;;;5014907;28;43015;-87
2023/12/30 01:50:08;;;;;;;;;;;18.70;64.80;;;;;;5016149;28;42994;-85
2023/12/30 01:52:35;;;;;;;;;;;18.60;64.80;;;;;;5014625;28;42999;-90
2023/12/30 01:55:01;;;;;;;;;;;18.70;64.80;;;;;;5014410;28;43017;-85
2023/12/30 01:57:27;;;;;;;;;;;18.70;64.80;;;;;;5015556;28;43813;-86
2023/12/30 01:59:52;;;;;;;;;;;18.60;64.80;;;;;;5014391;28;43259;-86
2023/12/30 02:02:18;;;;;;;;;;;18.60;64.70;;;;;;5016025;28;43430;-86
2023/12/30 02:04:44;;;;;;;;;;;18.70;64.40;;;;;;5015296;28;43035;-86
2023/12/30 02:07:09;;;;;;;;;;;18.60;64.60;;;;;;5014412;28;43513;-86
2023/12/30 02:09:36;;;;;;;;;;;18.60;64.80;;;;;;5016143;28;43034;-86
2023/12/30 02:12:04;;;;;;;;;;;;;;;;;;5015023;28;43087;-86
2023/12/30 02:14:30;;;;;;;;;;;18.70;64.90;;;;;;5014367;28;43123;-86
2023/12/30 02:16:56;;;;;;;;;;;18.60;64.90;;;;;;5015433;28;43729;-89
2023/12/30 02:19:22;;;;;;;;;;;18.60;64.90;;;;;;5015112;28;43042;-87
2023/12/30 02:21:48;;;;;;;;;;;18.70;65.00;;;;;;5014530;28;43594;-88
2023/12/30 02:24:14;;;;;;;;;;;18.60;64.90;;;;;;5016412;28;42942;-88
2023/12/30 02:26:39;;;;;;;;;;;18.70;65.00;;;;;;5014857;28;43575;-87
2023/12/30 02:29:08;;;;;;;;;;;18.50;64.80;;;;;;5015173;28;42983;-87
2023/12/30 02:31:45;;;;;;;;;;;18.60;65.00;;;;;;5014743;28;44501;-88
2023/12/30 02:34:15;;;;;;;;;;;18.60;64.80;;;;;;5007390;28;42966;-88
2023/12/30 02:36:40;;;;;;;;;;;18.70;65.00;;;;;;5005446;28;43128;-88
2023/12/30 02:39:06;;;;;;;;;;;18.70;65.10;;;;;;5005418;28;42965;-90
2023/12/30 02:41:31;;;;;;;;;;;18.60;65.00;;;;;;5016222;28;44598;-88
2023/12/30 02:43:58;;;;;;;;;;;18.70;65.10;;;;;;5025106;28;43125;-92
2023/12/30 02:46:24;;;;;;;;;;;18.70;65.00;;;;;;5025345;28;42816;-90
2023/12/30 02:48:49;;;;;;;;;;;18.60;64.80;;;;;;5025751;28;42992;-92
2023/12/30 02:51:15;;;;;;;;;;;18.70;65.00;;;;;;5025556;28;42856;-92
2023/12/30 02:53:40;;;;;;;;;;;18.60;64.90;;;;;;5024539;28;42869;-92
2023/12/30 02:56:06;;;;;;;;;;;18.60;64.90;;;;;;5025878;28;42714;-93
2023/12/30 02:58:32;;;;;;;;;;;18.50;64.80;;;;;;5025640;28;43038;-92
2023/12/30 03:00:57;;;;;;;;;;;18.50;64.80;;;;;;5024274;28;45064;-90
2023/12/30 03:03:23;;;;;;;;;;;18.60;64.90;;;;;;5022047;28;42866;-91
2023/12/30 03:05:48;;;;;;;;;;;18.50;64.80;;;;;;5010545;28;43246;-87
2023/12/30 03:08:14;;;;;;;;;;;18.60;64.80;;;;;;5005553;28;43070;-89
2023/12/30 03:10:39;;;;;;;;;;;18.50;64.80;;;;;;5004483;28;43598;-87
2023/12/30 03:13:05;;;;;;;;;;;18.60;64.80;;;;;;5004682;28;43216;-86
2023/12/30 03:15:30;;;;;;;;;;;18.60;64.70;;;;;;5004246;28;42950;-88
2023/12/30 03:17:56;;;;;;;;;;;18.60;64.80;;;;;;5004897;28;43146;-89
2023/12/30 03:20:21;;;;;;;;;;;18.60;64.70;;;;;;5004356;28;42884;-89
2023/12/30 03:22:47;;;;;;;;;;;18.50;64.80;;;;;;5000856;28;43059;-89
2023/12/30 03:25:12;;;;;;;;;;;18.50;64.70;;;;;;5003674;28;42967;-90
2023/12/30 03:27:38;;;;;;;;;;;18.80;64.90;;;;;;5004622;28;42853;-86
2023/12/30 03:30:04;;;;;;;;;;;18.60;64.80;;;;;;5004138;28;44493;-87
2023/12/30 03:32:29;;;;;;;;;;;18.60;64.80;;;;;;5005113;28;42843;-89
2023/12/30 03:34:55;;;;;;;;;;;18.50;64.70;;;;;;5004353;28;43509;-89
2023/12/30 03:37:20;;;;;;;;;;;18.50;64.60;;;;;;5004429;28;42812;-88
2023/12/30 03:39:46;;;;;;;;;;;18.70;64.60;;;;;;5002335;28;45582;-89
2023/12/30 03:42:11;;;;;;;;;;;18.60;64.60;;;;;;5004330;28;43008;-88
2023/12/30 03:44:37;;;;;;;;;;;18.60;64.60;;;;;;5004685;28;43054;-89
2023/12/30 03:47:02;;;;;;;;;;;18.70;64.60;;;;;;5007529;28;43007;-89
2023/12/30 03:49:28;;;;;;;;;;;18.70;64.50;;;;;;5022610;28;45608;-85
2023/12/30 03:51:54;;;;;;;;;;;;;;;;;;5003512;28;42897;-87
2023/12/30 03:54:19;;;;;;;;;;;18.50;64.40;;;;;;5004020;28;43482;-84
2023/12/30 03:56:47;;;;;;;;;;;18.70;64.40;;;;;;5004310;28;42919;-90
2023/12/30 03:59:12;;;;;;;;;;;18.50;64.20;;;;;;5021398;28;45598;-90
2023/12/30 04:01:40;;;;;;;;;;;18.50;64.30;;;;;;5006550;28;43192;-88
2023/12/30 04:04:05;;;;;;;;;;;18.50;64.30;;;;;;5006515;28;43032;-89
2023/12/30 04:06:31;;;;;;;;;;;18.50;64.30;;;;;;5026249;28;43183;-92
2023/12/30 04:08:57;;;;;;;;;;;18.50;64.40;;;;;;5026653;28;42997;-92
2023/12/30 04:11:22;;;;;;;;;;;18.60;64.50;;;;;;5027467;28;42999;-90
2023/12/30 04:13:47;;;;;;;;;;;18.60;64.50;;;;;;5027491;28;43744;-88
2023/12/30 04:16:13;;;;;;;;;;;18.60;64.60;;;;;;5027307;28;42885;-87
2023/12/30 04:18:39;;;;;;;;;;;18.50;64.50;;;;;;5027235;28;43365;-86
2023/12/30 04:21:04;;;;;;;;;;;18.50;64.50;;;;;;5027237;28;42942;-90
2023/12/30 04:23:30;;;;;;;;;;;18.50;64.10;;;;;;5025999;28;43591;-90
2023/12/30 04:25:55;;;;;;;;;;;18.50;64.30;;;;;;5026729;28;42919;-89
2023/12/30 04:28:21;;;;;;;;;;;18.60;64.30;;;;;;5026962;28;42881;-86
2023/12/30 04:30:46;;;;;;;;;;;18.60;64.40;;;;;;5026590;28;43165;-87
2023/12/30 04:33:11;;;;;;;;;;;18.50;64.40;;;;;;5026248;28;43457;-87
2023/12/30 04:35:39;;;;;;;;;;;18.60;64.50;;;;;;5026947;28;43207;-86
2023/12/30 04:38:05;;;;;;;;;;;18.50;64.40;;;;;;5025561;28;44303;-88
2023/12/30 04:40:30;;;;;;;;;;;18.60;64.40;;;;;;5023815;28;42927;-87
2023/12/30 04:42:56;;;;;;;;;;;18.60;63.50;;;;;;5026617;28;42874;-87
2023/12/30 04:45:21;;;;;;;;;;;18.40;63.70;;;;;;5026706;28;42868;-85
2023/12/30 04:47:47;;;;;;;;;;;18.50;64.30;;;;;;5026389;28;43704;-88
2023/12/30 04:50:12;;;;;;;;;;;18.60;64.30;;;;;;5025881;28;42932;-90
2023/12/30 04:52:38;;;;;;;;;;;18.60;64.30;;;;;;5025382;28;43636;-88
2023/12/30 04:55:04;;;;;;;;;;;18.50;64.30;;;;;;5025890;28;43056;-89
2023/12/30 04:57:30;;;;;;;;;;;18.50;64.10;;;;;;5025099;28;44727;-83
2023/12/30 04:59:55;;;;;;;;;;;18.50;64.30;;;;;;5026581;28;42911;-87
2023/12/30 05:02:21;;;;;;;;;;;18.50;64.30;;;;;;5026153;28;43280;-90
2023/12/30 05:04:46;;;;;;;;;;;18.50;64.20;;;;;;5026043;28;43152;-88
2023/12/30 05:07:12;;;;;;;;;;;18.50;64.40;;;;;;5026331;28;43131;-89
2023/12/30 05:09:37;;;;;;;;;;;18.50;64.40;;;;;;5022921;28;43065;-85
2023/12/30 05:12:03;;;;;;;;;;;18.60;64.40;;;;;;5026093;28;43039;-88
2023/12/30 05:14:29;;;;;;;;;;;18.60;64.40;;;;;;5024254;28;42935;-84
2023/12/30 05:16:54;;;;;;;;;;;18.10;64.10;;;;;;5009057;28;42940;-88
2023/12/30 05:19:20;;;;;;;;;;;18.40;64.20;;;;;;5006139;28;42968;-85
2023/12/30 05:21:48;;;;;;;;;;;18.60;64.40;;;;;;5006536;28;43061;-84
2023/12/30 05:24:15;;;;;;;;;;;18.40;64.20;;;;;;5005449;28;42992;-86
2023/12/30 05:26:40;;;;;;;;;;;18.50;64.40;;;;;;5013830;28;43466;-87
2023/12/30 05:29:06;;;;;;;;;;;18.60;64.50;;;;;;5025653;28;42907;-85
2023/12/30 05:31:31;;;;;;;;;;;18.60;64.50;;;;;;5025650;28;43030;-88
2023/12/30 05:33:57;;;;;;;;;;;18.50;64.50;;;;;;5025585;28;42974;-86
2023/12/30 05:36:22;;;;;;;;;;;18.50;64.60;;;;;;5024866;28;43030;-88
2023/12/30 05:38:48;;;;;;;;;;;18.60;64.60;;;;;;5023741;28;43096;-83
2023/12/30 05:41:13;;;;;;;;;;;18.50;64.70;;;;;;5025438;28;43205;-88
2023/12/30 05:43:39;;;;;;;;;;;18.50;64.80;;;;;;5025419;28;42944;-89
2023/12/30 05:46:05;;;;;;;;;;;18.40;64.70;;;;;;5024610;28;43607;-91
2023/12/30 05:48:30;;;;;;;;;;;18.40;64.50;;;;;;5024522;28;43126;-89
2023/12/30 05:50:56;;;;;;;;;;;18.60;64.70;;;;;;5024014;28;42885;-92
2023/12/30 05:53:21;;;;;;;;;;;18.40;64.70;;;;;;5025395;28;42825;-91
2023/12/30 05:55:47;;;;;;;;;;;18.40;64.70;;;;;;5025637;28;43894;-89
2023/12/30 05:58:12;;;;;;;;;;;18.40;64.70;;;;;;5026096;28;42812;-90
2023/12/30 06:00:38;;;;;;;;;;;18.40;64.90;;;;;;5024520;28;44083;-91
2023/12/30 06:03:03;;;;;;;;;;;18.40;64.90;;;;;;5023820;28;42899;-91
2023/12/30 06:05:29;;;;;;;;;;;18.50;64.80;;;;;;5027410;28;43495;-90
2023/12/30 06:07:55;;;;;;;;;;;18.70;65.00;;;;;;5034047;28;42931;-88
2023/12/30 06:10:22;;;;;;;;;;;18.50;64.90;;;;;;5023456;28;43017;-89
2023/12/30 06:12:48;;;;;;;;;;;18.40;64.70;;;;;;5025180;28;43037;-88
2023/12/30 06:15:13;;;;;;;;;;;18.30;64.70;;;;;;5023414;28;43709;-86
2023/12/30 06:17:39;;;;;;;;;;;18.50;64.90;;;;;;5025181;28;42997;-86
2023/12/30 06:20:04;;;;;;;;;;;18.30;64.70;;;;;;5022764;28;43442;-90
2023/12/30 06:22:30;;;;;;;;;;;18.30;64.60;;;;;;5024125;28;43100;-88
2023/12/30 06:24:56;;;;;;;;;;;18.40;64.90;;;;;;5022784;28;45758;-91
2023/12/30 06:27:21;;;;;;;;;;;18.60;64.40;;;;;;5023973;28;42967;-87
2023/12/30 06:29:49;;;;;;;;;;;18.40;64.50;;;;;;5024832;28;43457;-90
2023/12/30 06:32:15;;;;;;;;;;;18.30;64.60;;;;;;5024079;28;43002;-90
2023/12/30 06:34:41;;;;;;;;;;;18.40;64.70;;;;;;5024442;28;42984;-88
2023/12/30 06:37:06;;;;;;;;;;;18.40;64.60;;;;;;5023866;28;43134;-88
2023/12/30 06:39:31;;;;;;;;;;;18.50;64.80;;;;;;5020759;28;43463;-87
2023/12/30 06:42:00;;;;;;;;;;;18.40;64.90;;;;;;5021796;28;43061;-88
2023/12/30 06:44:26;;;;;;;;;;;18.40;64.80;;;;;;5024173;28;43376;-91
2023/12/30 06:46:51;;;;;;;;;;;18.40;64.80;;;;;;5025236;28;42982;-95
2023/12/30 06:49:17;;;;;;;;;;;18.30;64.80;;;;;;5025249;28;43433;-93
2023/12/30 06:51:43;;;;;;;;;;;18.50;64.90;;;;;;5025582;28;42978;-91
2023/12/30 06:54:08;;;;;;;;;;;18.40;64.80;;;;;;5023974;28;43686;-90
2023/12/30 06:56:34;;;;;;;;;;;18.20;64.70;;;;;;5025392;28;43034;-91
2023/12/30 06:58:59;;;;;;;;;;;18.40;64.90;;;;;;5024994;28;43049;-89
2023/12/30 07:01:25;;;;;;;;;;;18.50;64.40;;;;;;5024444;28;42936;-90
2023/12/30 07:03:51;;;;;;;;;;;18.30;64.80;;;;;;5025012;28;43388;-87
2023/12/30 07:06:16;;;;;;;;;;;18.40;64.90;;;;;;5024692;28;43061;-88
2023/12/30 07:08:42;;;;;;;;;;;18.30;63.90;;;;;;5021908;28;43284;-89
2023/12/30 07:11:09;;;;;;;;;;;18.40;62.50;;;;;;5023444;28;60800;-89
2023/12/30 07:13:34;;;;;;;;;;;18.40;64.20;;;;;;5020764;28;44139;-91
2023/12/30 07:16:00;;;;;;;;;;;18.40;64.40;;;;;;5023418;28;42992;-88
2023/12/30 07:18:26;;;;;;;;;;;18.40;64.40;;;;;;5023328;28;44445;-89
2023/12/30 07:20:51;;;;;;;;;;;18.50;64.60;;;;;;5023813;28;42920;-89
2023/12/30 07:23:17;;;;;;;;;;;18.20;64.50;;;;;;5023248;28;43786;-89
2023/12/30 07:25:42;;;;;;;;;;;18.40;64.50;;;;;;5021544;28;42903;-88
2023/12/30 07:28:08;;;;;;;;;;;18.40;64.50;;;;;;5024301;28;44097;-87
2023/12/30 07:30:34;;;;;;;;;;;18.30;64.50;;;;;;5023162;28;42975;-89
2023/12/30 07:33:00;;;;;;;;;;;18.40;64.70;;;;;;5017741;28;42839;-91
2023/12/30 07:35:27;;;;;;;;;;;18.30;64.70;;;;;;5014442;28;42880;-91
2023/12/30 07:37:52;;;;;;;;;;;18.20;64.60;;;;;;5020442;28;43113;-89
2023/12/30 07:40:19;;;;;;;;;;;18.30;64.90;;;;;;5015551;28;43069;-91
2023/12/30 07:42:45;;;;;;;;;;;18.30;64.80;;;;;;5012061;28;42992;-90
2023/12/30 07:45:10;;;;;;;;;;;18.40;65.10;;;;;;5012973;28;43097;-90
2023/12/30 07:47:36;;;;;;;;;;;18.30;65.10;;;;;;5014016;28;43069;-91
2023/12/30 07:50:02;;;;;;;;;;;18.30;65.10;;;;;;5012458;28;43019;-90
2023/12/30 07:52:27;;;;;;;;;;;18.30;65.10;;;;;;5014454;28;43422;-82
2023/12/30 07:54:53;;;;;;;;;;;18.30;65.10;;;;;;5011794;28;42946;-90
2023/12/30 07:57:19;;;;;;;;;;;18.40;65.40;;;;;;5013374;28;42919;-84
2023/12/30 07:59:44;;;;;;;;;;;18.20;65.00;;;;;;5011381;28;43126;-81
2023/12/30 08:02:10;;;;;;;;;;;18.30;65.10;;;;;;5014600;28;43166;-88
2023/12/30 08:04:35;;;;;;;;;;;18.40;65.10;;;;;;5019972;28;43016;-88
2023/12/30 08:07:01;;;;;;;;;;;18.30;64.90;;;;;;5022583;28;43010;-83
2023/12/30 08:09:26;;;;;;;;;;;18.20;64.90;;;;;;5022659;28;43288;-83
2023/12/30 08:11:52;;;;;;;;;;;18.40;64.90;;;;;;5017518;28;43578;-85
2023/12/30 08:14:17;;;;;;;;;;;18.30;64.80;;;;;;5009455;28;42879;-84
2023/12/30 08:16:43;;;;;;;;;;;18.40;64.70;;;;;;5009739;28;43142;-86
2023/12/30 08:19:08;;;;;;;;;;;18.30;64.50;;;;;;5011315;28;43300;-84
2023/12/30 08:21:34;;;;;;;;;;;18.20;65.00;;;;;;5016485;28;43069;-85
2023/12/30 08:24:01;;;;;;;;;;;18.30;64.50;;;;;;5021149;28;42987;-86
2023/12/30 08:26:27;;;;;;;;;;;18.20;64.70;;;;;;5019741;28;42990;-87
2023/12/30 08:28:54;;;;;;;;;;;18.20;64.30;;;;;;5014948;28;42980;-86
2023/12/30 08:31:21;;;;;;;;;;;18.40;64.90;;;;;;5012489;28;43014;-83
2023/12/30 08:33:46;;;;;;;;;;;18.40;64.60;;;;;;5016744;28;43059;-85
2023/12/30 08:36:12;;;;;;;;;;;18.20;64.50;;;;;;5017427;28;42951;-88
2023/12/30 08:38:39;;;;;;;;;;;18.10;64.40;;;;;;5022463;28;43046;-84
2023/12/30 08:41:05;;;;;;;;;;;18.20;64.40;;;;;;5023239;28;43086;-89
2023/12/30 08:43:30;;;;;;;;;;;18.20;64.30;;;;;;5008559;28;43051;-84
2023/12/30 08:45:56;;;;;;;;;;;18.30;64.00;;;;;;5020386;28;44258;-91
2023/12/30 08:48:21;;;;;;;;;;;18.20;64.40;;;;;;5021439;28;42861;-89
2023/12/30 08:50:48;;;;;;;;;;;18.20;64.60;;;;;;5015884;28;44024;-91
2023/12/30 08:53:14;;;;;;;;;;;18.30;64.40;;;;;;5009562;28;43467;-86
2023/12/30 08:55:39;;;;;;;;;;;18.30;64.40;;;;;;5014206;28;43963;-84
2023/12/30 08:58:04;;;;;;;;;;;18.30;64.60;;;;;;5016381;28;43032;-87
2023/12/30 09:00:30;;;;;;;;;;;18.10;64.20;;;;;;5021271;28;43212;-82
2023/12/30 09:02:56;;;;;;;;;;;18.40;64.00;;;;;;5014793;28;42971;-88
2023/12/30 09:05:21;;;;;;;;;;;18.10;57.30;;;;;;5014793;28;43097;-86
2023/12/30 09:07:48;;;;;;;;;;;;;;;;;;5013266;28;43010;-86
2023/12/30 09:10:18;;;;;;;;;;;17.80;53.90;;;;;;5020640;28;45817;-89
2023/12/30 09:12:44;;;;;;;;;;;17.30;52.50;;;;;;5014105;28;43409;-89
2023/12/30 09:15:09;;;;;;;;;;;17.40;52.50;;;;;;5016100;28;43657;-87
2023/12/30 09:17:35;;;;;;;;;;;17.10;52.80;;;;;;5019116;28;43065;-88
2023/12/30 09:20:01;;;;;;;;;;;17.10;52.60;;;;;;5016489;28;43008;-86
2023/12/30 09:22:27;;;;;;;;;;;17.00;52.40;;;;;;5015437;28;43061;-83
2023/12/30 09:24:52;;;;;;;;;;;16.90;52.40;;;;;;5012643;28;43666;-84
2023/12/30 09:27:18;;;;;;;;;;;16.80;51.70;;;;;;5015664;28;42960;-84
2023/12/30 09:29:43;;;;;;;;;;;16.90;51.20;;;;;;5013855;28;43481;-85
2023/12/30 09:32:09;;;;;;;;;;;16.70;50.90;;;;;;5013930;28;42949;-85
2023/12/30 09:34:36;;;;;;;;;;;16.90;51.30;;;;;;5016732;28;43499;-85
2023/12/30 09:37:02;;;;;;;;;;;16.90;50.90;;;;;;5016233;28;42793;-84
2023/12/30 09:39:27;;;;;;;;;;;16.80;51.10;;;;;;5018269;28;42835;-84
2023/12/30 09:41:53;;;;;;;;;;;16.80;50.80;;;;;;5014120;28;42764;-83
2023/12/30 09:44:19;;;;;;;;;;;16.70;50.50;;;;;;5016757;28;44600;-85
2023/12/30 09:46:44;;;;;;;;;;;16.80;50.80;;;;;;5016779;28;43097;-84
2023/12/30 09:49:13;;;;;;;;;;;16.70;50.80;;;;;;5015611;28;43715;-85
2023/12/30 09:51:38;;;;;;;;;;;16.80;50.80;;;;;;5016830;28;43196;-85
2023/12/30 09:54:04;;;;;;;;;;;16.80;50.60;;;;;;5015631;28;42966;-85
2023/12/30 09:56:30;;;;;;;;;;;16.70;50.70;;;;;;5023964;28;42894;-86
2023/12/30 09:58:56;;;;;;;;;;;;;;;;;;5023071;28;42968;-85
2023/12/30 10:01:21;;;;;;;;;;;16.60;52.10;;;;;;5016930;28;42993;-85
2023/12/30 10:04:28;;;;;;;;;;;16.60;52.30;;;;;;5015938;28;43118;-80
2023/12/30 10:06:55;;;;;;;;;;;16.50;53.60;;;;;;5012308;28;43241;-83
2023/12/30 10:09:22;;;;;;;;;;;16.80;54.10;;;;;;5016174;28;43951;-83
2023/12/30 10:11:48;;;;;;;;;;;16.70;54.60;;;;;;5024628;28;42908;-83
2023/12/30 10:14:14;;;;;;;;;;;16.80;54.90;;;;;;5023374;28;44230;-89
2023/12/30 10:16:39;;;;;;;;;;;17.00;55.00;;;;;;5026540;28;42905;-89
2023/12/30 10:19:08;;;;;;;;;;;17.10;55.10;;;;;;5026372;28;42951;-91
2023/12/30 10:21:35;;;;;;;;;;;17.20;55.30;;;;;;5025967;28;43124;-90
2023/12/30 10:24:03;;;;;;;;;;;17.20;55.40;;;;;;5022651;28;43670;-87
2023/12/30 10:26:29;;;;;;;;;;;17.30;55.50;;;;;;5013746;28;43333;-86
2023/12/30 10:28:55;;;;;;;;;;;17.40;55.70;;;;;;5005183;28;42949;-87
2023/12/30 10:31:20;;;;;;;;;;;17.50;55.60;;;;;;5005455;28;43027;-86
2023/12/30 10:33:47;;;;;;;;;;;17.40;55.20;;;;;;5005721;28;43347;-87
2023/12/30 10:36:13;;;;;;;;;;;17.60;55.20;;;;;;5024340;28;42766;-87
2023/12/30 10:38:40;;;;;;;;;;;17.40;54.80;;;;;;5025417;28;43912;-87
2023/12/30 10:41:05;;;;;;;;;;;17.50;55.00;;;;;;5025660;28;42844;-87
2023/12/30 10:43:31;;;;;;;;;;;17.60;55.00;;;;;;5025114;28;42943;-86
2023/12/30 10:45:58;;;;;;;;;;;17.70;55.10;;;;;;5034032;28;42824;-87
2023/12/30 10:48:29;;;;;;;;;;;17.60;55.10;;;;;;5027649;28;42939;-87
2023/12/30 10:50:55;;;;;;;;;;;17.60;55.10;;;;;;5039926;28;42995;-87
2023/12/30 10:53:25;;;;;;;;;;;17.60;55.10;;;;;;5039816;28;43387;-87
2023/12/30 10:55:52;;;;;;;;;;;17.80;55.30;;;;;;5024102;28;42868;-86
2023/12/30 10:58:20;;;;;;;;;;;17.70;55.30;;;;;;5024484;28;43554;-87
2023/12/30 11:00:48;;;;;;;;;;;17.70;55.40;;;;;;5024778;28;42880;-87
2023/12/30 11:03:14;;;;;;;;;;;17.90;55.60;;;;;;5024901;28;44048;-87
2023/12/30 11:06:07;;;;;;;;;;;17.80;55.60;;;;;;5025046;28;43006;-87
2023/12/30 11:08:33;;;;;;;;;;;17.70;55.80;;;;;;5022489;28;43625;-87
2023/12/30 11:10:59;;;;;;;;;;;17.70;55.90;;;;;;5024869;28;43012;-87
2023/12/30 11:13:25;;;;;;;;;;;17.80;55.90;;;;;;5024540;28;43842;-87
2023/12/30 11:15:50;;;;;;;;;;;17.80;54.50;;;;;;5024361;28;43133;-86
2023/12/30 11:18:36;;;;;;;;;;;17.70;54.70;;;;;;5017563;28;43449;-88
2023/12/30 11:21:01;;;;;;;;;;;17.90;55.70;;;;;;5016945;28;42873;-85
2023/12/30 11:23:27;;;;;;;;;;;17.90;56.00;;;;;;5014796;28;43944;-85
2023/12/30 11:25:52;;;;;;;;;;;17.70;56.40;;;;;;5013186;28;42983;-86
2023/12/30 11:28:19;;;;;;;;;;;17.70;56.60;;;;;;5014567;28;44265;-87
2023/12/30 11:30:45;;;;;;;;;;;17.80;56.70;;;;;;5014120;28;42897;-86
2023/12/30 11:33:14;;;;;;;;;;;17.70;56.80;;;;;;5014684;28;42824;-85
2023/12/30 11:35:39;;;;;;;;;;;17.90;57.00;;;;;;5013116;28;42943;-85
2023/12/30 11:38:09;;;;;;;;;;;18.00;56.80;;;;;;5013272;28;45689;-85
2023/12/30 11:40:42;;;;;;;;;;;18.00;56.30;;;;;;5014207;28;42885;-85
2023/12/30 11:43:10;;;;;;;;;;;17.90;56.80;;;;;;5012857;28;43070;-85
2023/12/30 11:45:37;;;;;;;;;;;17.90;56.90;;;;;;5010027;28;43106;-86
2023/12/30 11:48:03;;;;;;;;;;;17.80;56.80;;;;;;5013393;28;43850;-85
2023/12/30 11:50:28;;;;;;;;;;;18.10;57.10;;;;;;5012012;28;43273;-86
2023/12/30 11:52:54;;;;;;;;;;;17.70;56.80;;;;;;5013307;28;43859;-85
2023/12/30 11:55:19;;;;;;;;;;;17.90;57.00;;;;;;5012809;28;43022;-85
2023/12/30 11:57:46;;;;;;;;;;;18.00;57.00;;;;;;5013438;28;43992;-86
2023/12/30 12:00:13;;;;;;;;;;;17.80;56.90;;;;;;5010564;28;43806;-84
2023/12/30 12:02:38;;;;;;;;;;;17.90;57.00;;;;;;5014219;28;42927;-85
2023/12/30 12:05:05;;;;;;;;;;;17.90;57.10;;;;;;5015642;28;42967;-86
2023/12/30 12:07:31;;;;;;;;;;;17.90;57.10;;;;;;5012664;28;44093;-85
2023/12/30 12:09:56;;;;;;;;;;;17.80;57.10;;;;;;5014299;28;42940;-86
2023/12/30 12:12:22;;;;;;;;;;;17.90;57.10;;;;;;5011418;28;43434;-85
2023/12/30 12:14:51;;;;;;;;;;;18.00;57.30;;;;;;5014277;28;42938;-84
2023/12/30 12:17:17;;;;;;;;;;;18.00;57.40;;;;;;5014359;28;43474;-92
2023/12/30 12:19:45;;;;;;;;;;;18.00;57.40;;;;;;5014240;28;43327;-86
2023/12/30 12:22:15;;;;;;;;;;;18.00;57.60;;;;;;5014971;28;43398;-85
2023/12/30 12:24:44;;;;;;;;;;;17.90;57.70;;;;;;5012892;28;42870;-83
2023/12/30 12:27:10;;;;;;;;;;;18.00;57.70;;;;;;5015865;28;43746;-81
2023/12/30 12:29:45;;;;;;;;;;;17.90;57.70;;;;;;5016331;28;43140;-82
2023/12/30 12:32:13;;;;;;;;;;;18.00;57.70;;;;;;5012996;28;43736;-82
2023/12/30 12:34:41;;;;;;;;;;;18.00;57.70;;;;;;5012632;28;43082;-82
2023/12/30 12:37:07;;;;;;;;;;;18.10;57.70;;;;;;5022867;28;43327;-82
2023/12/30 12:39:33;;;;;;;;;;;17.90;57.70;;;;;;5010346;28;43080;-81
2023/12/30 12:41:58;;;;;;;;;;;18.00;56.90;;;;;;5020909;28;43323;-81
2023/12/30 12:44:24;;;;;;;;;;;18.10;57.90;;;;;;5015146;28;42860;-80
2023/12/30 12:46:49;;;;;;;;;;;18.00;57.90;;;;;;5022045;28;44964;-84
2023/12/30 12:49:19;;;;;;;;;;;;;;;;;;5007514;28;43004;-80
2023/12/30 12:51:45;;;;;;;;;;;17.90;57.70;;;;;;5009138;28;42986;-82
2023/12/30 12:54:11;;;;;;;;;;;;;;;;;;5021481;28;43014;-83
2023/12/30 12:56:37;;;;;;;;;;;18.20;58.10;;;;;;5022256;28;43956;-81
2023/12/30 12:59:02;;;;;;;;;;;18.10;58.00;;;;;;5017989;28;43014;-82
2023/12/30 13:01:28;;;;;;;;;;;18.10;57.90;;;;;;5013449;28;42974;-81
2023/12/30 13:03:55;;;;;;;;;;;18.20;58.00;;;;;;5012962;28;43007;-80
2023/12/30 13:06:22;;;;;;;;;;;18.10;58.00;;;;;;5019187;28;43174;-81
2023/12/30 13:08:52;;;;;;;;;;;18.00;57.90;;;;;;5019979;28;43000;-81
2023/12/30 13:11:25;;;;;;;;;;;;;;;;;;5017220;28;43207;-82
2023/12/30 13:13:53;;;;;;;;;;;18.20;58.10;;;;;;5012936;28;43024;-82
2023/12/30 13:16:18;;;;;;;;;;;18.10;58.10;;;;;;5018554;28;43298;-86
2023/12/30 13:18:44;;;;;;;;;;;;;;;;;;5015141;28;42985;-87
2023/12/30 13:21:10;;;;;;;;;;;18.10;58.50;;;;;;5014050;28;43705;-80
2023/12/30 13:23:36;;;;;;;;;;;18.20;58.70;;;;;;5017095;28;42880;-81
2023/12/30 13:26:01;;;;;;;;;;;18.20;58.50;;;;;;5015644;28;42946;-81
2023/12/30 13:28:27;;;;;;;;;;;18.30;58.70;;;;;;5012992;28;43227;-80
2023/12/30 13:30:52;;;;;;;;;;;18.30;58.70;;;;;;5012590;28;45149;-79
2023/12/30 13:33:20;;;;;;;;;;;18.20;58.30;;;;;;5017832;28;43014;-80
2023/12/30 13:35:47;;;;;;;;;;;18.20;58.20;;;;;;5015026;28;43053;-80
2023/12/30 13:38:14;;;;;;;;;;;18.20;58.60;;;;;;5014331;28;42942;-82
2023/12/30 13:40:40;;;;;;;;;;;18.10;58.70;;;;;;5014606;28;42943;-82
2023/12/30 13:43:09;;;;;;;;;;;18.10;58.70;;;;;;5015351;28;42971;-85
2023/12/30 13:45:43;;;;;;;;;;;18.30;58.80;;;;;;5014623;28;43059;-81
2023/12/30 13:50:49;;;;;;;;;;;18.20;58.90;;;;;;5014349;28;42982;-80
2023/12/30 13:53:16;;;;;;;;;;;18.20;58.80;;;;;;5015331;28;42900;-81
2023/12/30 13:55:41;;;;;;;;;;;18.30;58.30;;;;;;5013307;28;43080;-80
2023/12/30 13:58:07;;;;;;;;;;;18.30;58.60;;;;;;5014103;28;42990;-80
2023/12/30 14:00:34;;;;;;;;;;;18.30;59.00;;;;;;5014458;28;42928;-80
2023/12/30 14:03:03;;;;;;;;;;;18.20;59.10;;;;;;5016390;28;42916;-80
2023/12/30 14:05:33;;;;;;;;;;;18.30;59.30;;;;;;5013860;28;44089;-81
2023/12/30 14:08:16;;;;;;;;;;;18.30;59.10;;;;;;5015490;28;43070;-80
2023/12/30 14:10:48;;;;;;;;;;;;;;;;;;5013936;28;42994;-79
2023/12/30 14:13:15;;;;;;;;;;;18.30;59.20;;;;;;5014930;28;43185;-80
2023/12/30 14:15:42;;;;;;;;;;;18.30;59.20;;;;;;5013556;28;43323;-80
2023/12/30 14:18:07;;;;;;;;;;;18.30;59.40;;;;;;5014588;28;43035;-80